Wednesday, April 16, 2014
13:33 UTC
  |  Log In   |  Register Free
Airport Search:

Ellington Field Airport
(KEFD)

FAA data valid effective April 3, 2014 until May 29, 2014 (unless otherwise noted).

 
 
 
 
 
 
 
 
 
 
 
 
 
 

Current Aviation Weather for Ellington Field Airport (KEFD)

The most recent METAR observation for KEFD was updated at: 1250 UTC
METAR Summary (Translated METAR)
KEFD
161250Z 04004KT 10SM FEW050 11/07 A3018
KHOU
(6.7 nm NW from KEFD)
161253Z 08007KT 10SM FEW045 11/06 A3017 RMK AO2 SLP220 T01110056
TAF Summary (Translated TAF)
KEFD
1612/1718 09005KT 9999 FEW050 QNH3013INS BECMG 1614/1615 12012KT 9999 SCT030 QNH2998INS BECMG 1702/1703 12009KT 9999 BKN020 QNH3002INS BECMG 1714/1715 09010G15KT 9000 -SHRA OVC020 QNH3008INS TX20/1620Z TN10/1612Z
KHOU
(6.7 nm NW from KEFD)
161120Z 1612/1712 09005KT P6SM FEW250 FM161500 11011KT P6SM SCT250 FM162100 14012KT P6SM FEW030 FM170200 14006KT P6SM SCT025 FM171100 10006KT P6SM BKN025
  Airport Weather Conditions for KEFD

 Current Weather at EFD
50° F
A Few Clouds
North winds at 0.0 mph
EFD NOAA Radar

Pressure: 30.16 in
Humidity: 62%
Wind: Calm
Dew Point: 37.4°F
Visibility: 10.00 mi


Airport Weather Forecast for KEFD

Translated METAR and TAF for KEFD
Translated METAR for KEFD (1333 UTC 16 April 2014)
found at http://aviationweather.gov/adds/metars/
 
METAR text: KEFD 161250Z 04004KT 10SM FEW050 11/07 A3018
Conditions at: KEFD (HOUSTON/ELLINGTO, TX, US) observed 1250 UTC 16 April 2014
Temperature: 11.0°C (52°F)
Dewpoint: 7.0°C (45°F) [RH = 76%]
Pressure (altimeter): 30.18 inches Hg (1022.1 mb)
Winds: from the NE (40 degrees) at 5 MPH (4 knots; 2.1 m/s)
Visibility: 10 or more miles (16+ km)
Ceiling: at least 12,000 feet AGL
Clouds: few clouds at 5000 feet AGL
Weather: no significant weather observed at this time
Translated TAF for KEFD
Forecast for: KEFD (HOUSTON/ELLINGTO, TX, US)
TAF Text: TAF KEFD 1612/1718 09005KT 9999 FEW050 QNH3013INS
Forecast period: 1200 to 1400 UTC 16 April 2014
Forecast type: FROM: standard forecast or significant change
Winds: from the E (90 degrees) at 6 MPH (5 knots; 2.6 m/s)
Visibility: 6 or more miles (10+ km)
Clouds: few clouds at 5000 feet AGL
Weather: no significant weather forecast for this period
TAF Text: BECMG 1614/1615 12012KT 9999 SCT030 QNH2998INS
Forecast period: 1400 UTC 16 April 2014 to 0200 UTC 17 April 2014
Forecast type: BECOMING: Conditions expected to become as follows by 1500 UTC 16 April 2014
Winds: from the ESE (120 degrees) at 14 MPH (12 knots; 6.2 m/s)
Visibility: 6 or more miles (10+ km)
Clouds: scattered clouds at 3000 feet AGL
Weather: no significant weather forecast for this period
TAF Text: BECMG 1702/1703 12009KT 9999 BKN020 QNH3002INS
Forecast period: 0200 to 1400 UTC 17 April 2014
Forecast type: BECOMING: Conditions expected to become as follows by 0300 UTC 17 April 2014
Winds: from the ESE (120 degrees) at 10 MPH (9 knots; 4.7 m/s)
Visibility: 6 or more miles (10+ km)
Ceiling: 2000 feet AGL
Clouds: broken clouds at 2000 feet AGL
Weather: no significant weather forecast for this period
TAF Text: BECMG 1714/1715 09010G15KT 9000 -SHRA OVC020 QNH3008INS TX20/1620Z TN10/1612Z
Forecast period: 1400 to 1800 UTC 17 April 2014
Forecast type: BECOMING: Conditions expected to become as follows by 1500 UTC 17 April 2014
Winds: from the E (90 degrees) at 12 MPH (10 knots; 5.2 m/s)
gusting to 17 MPH (15 knots; 7.8 m/s)
Visibility: 6 miles (9 km)
Ceiling: 2000 feet AGL
Clouds: overcast cloud deck at 2000 feet AGL
Weather: -SHRA  (light rain showers)

Find All Airport Services Find A Hotel Find A Rental Car Find A Golf Course Find A Restaurant $100 Hamburger



FBO's on the Field
FBO Company Facility Photos Services Transportation Aviation Fuel Prices: Prices include tax
Catering Weather Repair Courtesy Rental Type 100LL JetA JetA+ MOGAS 8087
 
Southwest Airport Services

This FBO has not yet been rated
FS:Texaco
Last Updated: Mar-28
Login to update fuel prices
SS:
Contact Southwest Airport ServicesMore FBO Information
 
Add another FBO Facility Photos Catering Weather Repair Courtesy Rental Type 100LL JetA JetA+ MOGAS 8087
Services Transportation Aviation Fuel Prices: Prices include tax


GlobalAir.com Airport Resource Center model-print
model-print
model-print
model-print